Weaver, Alabama
Current Conditions -  °F | °C
As of 9:53 AM on Saturday 20 Dec 2014 (Local Time) from KANB Reporting Station
Haze Haze  
Wind Chill: 43°   Ceiling: 600
Heat Index: 43°   Visibility: 3mi
Dew Point: 40°   Wind: 0mph
Humidity: 89%   Direction: NA
Pressure: 30.23"   Gusts: NA
Location:  33.75°N, 85.81°W
Report Text: KANB 201553Z AUTO 00000KT 3SM BR OVC006 06/04 A3023 RMK AO2 SLP246 T00610044
Loading
Personal Weather Stations






























Interactive Weather Map New forecast layout! Learn more

10-Day Weather Forecast

Advertisements
Track Severe Weather on mobile